Time;durP1;ratioP1;P1;durP2;ratioP2;P2;SDS_P1;SDS_P2;PMS_P1;PMS_P2;Temp;Humidity;BMP_temperature;BMP_pressure;BME280_temperature;BME280_humidity;BME280_pressure;Samples;Min_cycle;Max_cycle;Signal;HPM_P1;HPM_P2
2023/12/12 00:01:32;;;;;;;6.72;1.52;;;;;;;6.57;100.00;100367.06;6248159;28;20052;-68
2023/12/12 00:04:33;;;;;;;7.65;1.83;;;;;;;6.51;100.00;100375.16;6243971;28;20049;-68
2023/12/12 00:07:35;;;;;;;4.45;1.35;;;;;;;6.34;100.00;100375.88;6247616;28;20061;-68
2023/12/12 00:10:36;;;;;;;7.78;1.70;;;;;;;6.32;100.00;100374.25;6247062;28;20060;-68
2023/12/12 00:13:39;;;;;;;6.78;1.70;;;;;;;6.39;100.00;100380.03;6246512;28;20049;-68
2023/12/12 00:16:40;;;;;;;7.28;1.60;;;;;;;6.33;100.00;100375.94;6255122;28;20048;-67
2023/12/12 00:19:42;;;;;;;4.10;1.75;;;;;;;6.35;100.00;100369.72;6255040;28;20132;-68
2023/12/12 00:22:43;;;;;;;10.95;1.90;;;;;;;6.39;100.00;100375.66;6254991;28;20208;-67
2023/12/12 00:25:45;;;;;;;3.42;1.40;;;;;;;6.27;100.00;100377.06;6254830;28;20049;-68
2023/12/12 00:28:47;;;;;;;10.90;2.30;;;;;;;6.19;100.00;100379.13;6255002;28;20052;-68
2023/12/12 00:31:49;;;;;;;2.75;1.50;;;;;;;6.25;100.00;100381.47;6254707;28;20461;-67
2023/12/12 00:34:51;;;;;;;5.72;2.40;;;;;;;6.34;100.00;100385.47;6254384;28;20057;-68
2023/12/12 00:37:52;;;;;;;5.35;1.92;;;;;;;6.42;100.00;100390.38;6246287;28;20119;-68
2023/12/12 00:40:54;;;;;;;7.75;1.90;;;;;;;6.38;100.00;100388.78;6254567;28;20128;-68
2023/12/12 00:43:56;;;;;;;7.97;1.80;;;;;;;6.44;100.00;100397.19;6254329;28;20060;-67
2023/12/12 00:46:58;;;;;;;6.10;2.28;;;;;;;6.51;100.00;100397.81;6254489;28;20350;-67
2023/12/12 00:49:59;;;;;;;5.13;2.00;;;;;;;6.53;100.00;100409.03;6254560;28;20045;-67
2023/12/12 00:53:00;;;;;;;3.83;1.70;;;;;;;6.45;100.00;100408.50;6254084;28;20049;-67
2023/12/12 00:56:02;;;;;;;3.55;1.90;;;;;;;6.38;100.00;100400.09;6254292;28;20056;-67
2023/12/12 00:59:04;;;;;;;6.97;1.90;;;;;;;6.37;100.00;100411.44;6254243;28;20049;-67
2023/12/12 01:02:06;;;;;;;4.60;1.80;;;;;;;6.29;100.00;100401.31;6254040;28;20060;-67
2023/12/12 01:05:08;;;;;;;11.70;1.88;;;;;;;6.14;100.00;100404.56;6253975;28;20049;-66
2023/12/12 01:08:09;;;;;;;5.25;2.08;;;;;;;6.25;100.00;100402.34;6253617;28;20528;-67
2023/12/12 01:11:11;;;;;;;6.95;1.92;;;;;;;6.28;100.00;100404.84;6254004;28;20127;-67
2023/12/12 01:14:13;;;;;;;4.13;2.13;;;;;;;6.29;100.00;100403.06;6253490;28;20433;-69
2023/12/12 01:17:15;;;;;;;4.60;1.58;;;;;;;6.28;100.00;100406.59;6253512;28;20045;-68
2023/12/12 01:20:16;;;;;;;4.32;1.70;;;;;;;6.29;100.00;100416.97;6253587;28;20056;-68
2023/12/12 01:23:18;;;;;;;7.43;1.98;;;;;;;6.29;100.00;100426.56;6253318;28;20128;-66
2023/12/12 01:26:20;;;;;;;10.18;2.00;;;;;;;6.27;100.00;100423.19;6253544;28;20053;-68
2023/12/12 01:29:23;;;;;;;2.67;1.55;;;;;;;6.30;100.00;100423.88;6253782;28;20136;-68
2023/12/12 01:32:24;;;;;;;17.08;2.42;;;;;;;6.31;100.00;100417.78;6253463;28;20438;-69
2023/12/12 01:35:25;;;;;;;2.33;1.70;;;;;;;6.26;100.00;100421.44;6253284;28;20060;-68
2023/12/12 01:38:27;;;;;;;6.25;1.77;;;;;;;6.25;100.00;100422.38;6253070;28;20358;-69
2023/12/12 01:41:28;;;;;;;5.30;2.20;;;;;;;6.25;100.00;100417.16;6253107;28;20051;-66
2023/12/12 01:44:31;;;;;;;9.05;1.88;;;;;;;6.38;100.00;100414.91;6253061;28;20060;-67
2023/12/12 01:47:32;;;;;;;6.70;1.83;;;;;;;6.53;100.00;100409.03;6252988;28;20410;-67
2023/12/12 01:50:33;;;;;;;4.82;1.88;;;;;;;6.45;100.00;100409.38;6253183;28;20053;-67
2023/12/12 01:53:40;;;;;;;8.60;2.53;;;;;;;6.37;100.00;100406.22;6251975;28;20050;-67
2023/12/12 01:56:41;;;;;;;4.60;1.65;;;;;;;6.42;100.00;100406.88;6250130;28;20045;-68
2023/12/12 01:59:45;;;;;;;8.25;1.70;;;;;;;6.45;100.00;100409.38;6247228;28;20049;-67
2023/12/12 02:02:46;;;;;;;9.55;2.00;;;;;;;6.25;100.00;100407.56;6249215;28;20052;-67
2023/12/12 02:05:48;;;;;;;7.97;2.08;;;;;;;6.24;100.00;100411.09;6247719;28;20049;-67
2023/12/12 02:08:50;;;;;;;6.03;2.17;;;;;;;6.16;100.00;100405.31;6252216;28;20053;-67
2023/12/12 02:11:52;;;;;;;6.15;2.25;;;;;;;6.12;100.00;100411.56;6252734;28;20057;-66
2023/12/12 02:14:54;;;;;;;5.97;1.65;;;;;;;6.03;100.00;100417.16;6247684;28;20045;-66
2023/12/12 02:17:56;;;;;;;10.00;1.88;;;;;;;6.01;100.00;100419.00;6248768;28;20049;-68
2023/12/12 02:20:59;;;;;;;5.97;1.92;;;;;;;5.95;100.00;100422.72;6243743;28;20058;-67
2023/12/12 02:24:02;;;;;;;5.43;2.22;;;;;;;5.93;100.00;100416.69;6243947;28;20049;-71
2023/12/12 02:27:04;;;;;;;5.43;2.63;;;;;;;5.94;100.00;100413.16;6252098;28;20061;-69
2023/12/12 02:30:06;;;;;;;7.43;2.22;;;;;;;5.89;100.00;100414.22;6251985;28;20064;-67
2023/12/12 02:33:08;;;;;;;5.85;2.17;;;;;;;5.84;100.00;100414.41;6251585;28;20328;-67
2023/12/12 02:36:09;;;;;;;8.80;2.17;;;;;;;5.80;100.00;100408.44;6251658;28;20052;-68
2023/12/12 02:39:12;;;;;;;3.45;1.92;;;;;;;5.81;100.00;100410.19;6251855;28;20057;-68
2023/12/12 02:42:13;;;;;;;3.47;1.95;;;;;;;5.90;100.00;100418.53;6251875;28;20056;-69
2023/12/12 02:45:15;;;;;;;6.88;1.95;;;;;;;5.90;100.00;100410.69;6251581;28;20454;-68
2023/12/12 02:48:17;;;;;;;12.88;2.67;;;;;;;5.82;100.00;100418.84;6251563;28;20381;-68
2023/12/12 02:51:18;;;;;;;5.03;1.52;;;;;;;5.97;100.00;100415.66;6251802;28;20053;-68
2023/12/12 02:54:21;;;;;;;10.18;1.98;;;;;;;5.92;100.00;100424.56;6251118;28;20489;-68
2023/12/12 02:57:23;;;;;;;7.95;2.00;;;;;;;5.91;100.00;100418.47;6251484;28;20049;-68
2023/12/12 03:00:24;;;;;;;9.60;1.80;;;;;;;5.92;100.00;100425.44;6251092;28;20050;-67
2023/12/12 03:03:25;;;;;;;8.18;2.25;;;;;;;5.94;100.00;100422.75;6249464;28;20060;-68
2023/12/12 03:06:27;;;;;;;6.38;2.28;;;;;;;5.91;100.00;100417.63;6250395;28;20444;-67
2023/12/12 03:09:29;;;;;;;9.68;2.03;;;;;;;5.80;100.00;100418.03;6251268;28;20049;-68
2023/12/12 03:12:31;;;;;;;8.63;2.20;;;;;;;5.50;100.00;100415.72;6251180;28;20049;-68
2023/12/12 03:15:32;;;;;;;3.67;2.03;;;;;;;5.44;100.00;100412.47;6250473;28;20056;-68
2023/12/12 03:18:33;;;;;;;7.72;2.58;;;;;;;5.45;100.00;100415.03;6250728;28;20041;-68
2023/12/12 03:21:35;;;;;;;12.77;2.28;;;;;;;5.42;100.00;100411.69;6251207;28;20053;-68
2023/12/12 03:24:37;;;;;;;7.38;2.35;;;;;;;5.38;100.00;100404.91;6249825;28;20080;-68
2023/12/12 03:27:39;;;;;;;7.78;2.67;;;;;;;5.37;100.00;100392.78;6250874;28;20046;-68
2023/12/12 03:30:40;;;;;;;6.82;2.15;;;;;;;5.34;100.00;100394.56;6250672;28;20481;-67
2023/12/12 03:33:41;;;;;;;13.23;2.53;;;;;;;5.29;100.00;100399.13;6249498;28;20390;-67
2023/12/12 03:36:43;;;;;;;5.72;2.10;;;;;;;5.25;100.00;100396.69;6250016;28;20053;-68
2023/12/12 03:39:46;;;;;;;6.40;1.85;;;;;;;5.19;100.00;100395.16;6250797;28;20056;-68
2023/12/12 03:42:47;;;;;;;4.97;2.28;;;;;;;5.17;100.00;100391.75;6249624;28;20049;-68
2023/12/12 03:45:48;;;;;;;9.43;2.40;;;;;;;5.11;100.00;100394.59;6249748;28;20561;-68
2023/12/12 03:48:50;;;;;;;11.60;4.22;;;;;;;5.15;100.00;100392.72;6250146;28;20046;-68
2023/12/12 03:51:51;;;;;;;6.63;2.58;;;;;;;5.11;100.00;100399.78;6250607;28;20053;-68
2023/12/12 03:54:54;;;;;;;8.10;2.15;;;;;;;5.09;100.00;100399.84;6249100;28;20049;-68
2023/12/12 03:57:55;;;;;;;8.98;2.53;;;;;;;5.08;100.00;100390.31;6249882;28;20457;-68
2023/12/12 04:00:56;;;;;;;8.75;2.72;;;;;;;5.07;100.00;100395.59;6250122;28;20068;-68
2023/12/12 04:03:58;;;;;;;3.67;1.85;;;;;;;5.07;100.00;100387.78;6249633;28;20342;-68
2023/12/12 04:06:59;;;;;;;5.93;2.30;;;;;;;5.09;100.00;100397.25;6249884;28;20050;-68
2023/12/12 04:10:02;;;;;;;4.78;1.83;;;;;;;5.08;100.00;100398.13;6250074;28;20068;-68
2023/12/12 04:13:04;;;;;;;4.43;2.33;;;;;;;5.06;100.00;100399.13;6250482;28;20192;-67
2023/12/12 04:16:05;;;;;;;4.28;2.03;;;;;;;5.01;100.00;100403.63;6249267;28;20136;-68
2023/12/12 04:19:07;;;;;;;5.75;1.70;;;;;;;4.95;100.00;100401.22;6249745;28;20362;-67
2023/12/12 04:22:08;;;;;;;4.85;2.13;;;;;;;4.95;100.00;100402.13;6250091;28;20050;-67
2023/12/12 04:25:12;;;;;;;7.60;2.10;;;;;;;4.88;100.00;100398.00;6249799;28;20056;-67
2023/12/12 04:28:14;;;;;;;8.25;2.17;;;;;;;4.79;100.00;100408.75;6249753;28;20037;-68
2023/12/12 04:31:16;;;;;;;7.35;2.70;;;;;;;4.72;100.00;100400.28;6248106;28;20045;-67
2023/12/12 04:34:18;;;;;;;7.35;2.30;;;;;;;4.67;100.00;100402.22;6243629;28;20050;-67
2023/12/12 04:37:19;;;;;;;5.68;1.95;;;;;;;4.64;100.00;100406.69;6244228;28;20353;-67
2023/12/12 04:40:27;;;;;;;6.70;2.63;;;;;;;4.62;100.00;100409.31;6241796;28;20042;-67
2023/12/12 04:43:28;;;;;;;11.98;2.40;;;;;;;4.59;100.00;100414.66;6241115;28;20457;-67
2023/12/12 04:46:29;;;;;;;4.35;2.22;;;;;;;4.55;100.00;100411.31;6248726;28;20048;-68
2023/12/12 04:49:31;;;;;;;8.45;2.47;;;;;;;4.50;100.00;100412.38;6242057;28;20053;-68
2023/12/12 04:52:33;;;;;;;4.70;2.17;;;;;;;4.50;100.00;100402.81;6249545;28;20445;-68
2023/12/12 04:55:35;;;;;;;6.97;2.35;;;;;;;4.32;100.00;100401.66;6252644;28;20056;-68
2023/12/12 04:58:37;;;;;;;8.75;2.40;;;;;;;4.26;100.00;100396.66;6246073;28;20045;-68
2023/12/12 05:01:38;;;;;;;5.75;2.47;;;;;;;4.20;100.00;100402.06;6253826;28;20049;-68
2023/12/12 05:04:39;;;;;;;4.82;2.55;;;;;;;4.14;100.00;100404.03;6253412;28;20061;-68
2023/12/12 05:07:41;;;;;;;7.25;2.40;;;;;;;4.11;100.00;100394.56;6253623;28;20357;-68
2023/12/12 05:10:43;;;;;;;3.78;2.10;;;;;;;4.07;100.00;100401.59;6245761;28;20512;-68
2023/12/12 05:13:45;;;;;;;9.02;2.35;;;;;;;4.03;100.00;100410.41;6254058;28;20049;-68
2023/12/12 05:16:47;;;;;;;4.55;2.10;;;;;;;4.01;100.00;100401.81;6253374;28;20346;-68
2023/12/12 05:19:48;;;;;;;5.78;2.20;;;;;;;3.91;100.00;100403.00;6251250;28;20054;-68
2023/12/12 05:22:50;;;;;;;6.45;2.75;;;;;;;3.88;100.00;100415.25;6239421;28;20061;-68
2023/12/12 05:25:53;;;;;;;7.28;2.30;;;;;;;3.85;100.00;100408.38;6235914;28;20049;-68
2023/12/12 05:28:55;;;;;;;6.05;2.60;;;;;;;3.81;100.00;100417.16;6239825;28;20045;-69
2023/12/12 05:31:56;;;;;;;8.73;2.22;;;;;;;3.79;100.00;100412.03;6229299;28;20057;-67
2023/12/12 05:34:58;;;;;;;7.10;2.25;;;;;;;3.77;100.00;100410.34;6233272;28;20356;-67
2023/12/12 05:38:00;;;;;;;10.85;2.45;;;;;;;3.76;100.00;100416.47;6245915;28;20346;-67
2023/12/12 05:41:02;;;;;;;4.65;1.77;;;;;;;3.76;100.00;100419.06;6242993;28;20052;-68
2023/12/12 05:44:05;;;;;;;9.93;2.65;;;;;;;3.76;100.00;100417.31;6241904;28;20057;-67
2023/12/12 05:47:06;;;;;;;4.93;2.17;;;;;;;3.74;100.00;100420.88;6236479;28;20045;-67
2023/12/12 05:50:10;;;;;;;5.60;2.60;;;;;;;3.71;100.00;100421.78;6231968;28;20052;-67
2023/12/12 05:53:12;;;;;;;8.05;2.03;;;;;;;3.73;100.00;100424.38;6240246;28;20135;-67
2023/12/12 05:56:14;;;;;;;8.77;2.33;;;;;;;3.72;100.00;100423.50;6239995;28;20052;-68
2023/12/12 05:59:15;;;;;;;6.45;2.45;;;;;;;3.68;100.00;100423.63;6239767;28;20052;-68
2023/12/12 06:02:17;;;;;;;6.10;2.05;;;;;;;3.56;100.00;100422.28;6240350;28;20050;-68
2023/12/12 06:05:19;;;;;;;5.15;2.47;;;;;;;3.53;100.00;100430.13;6238356;28;20342;-68
2023/12/12 06:08:21;;;;;;;4.03;2.10;;;;;;;3.53;100.00;100433.59;6238336;28;20046;-68
2023/12/12 06:11:24;;;;;;;9.48;3.03;;;;;;;3.53;100.00;100431.00;6239477;28;20165;-67
2023/12/12 06:14:26;;;;;;;3.83;2.30;;;;;;;3.52;100.00;100434.50;6238732;28;20045;-67
2023/12/12 06:17:27;;;;;;;4.15;1.92;;;;;;;3.46;100.00;100424.28;6228157;28;20053;-67
2023/12/12 06:20:30;;;;;;;7.38;2.60;;;;;;;3.45;100.00;100429.50;6238553;28;20052;-67
2023/12/12 06:23:32;;;;;;;7.68;2.15;;;;;;;3.50;100.00;100431.09;6238310;28;20056;-67
2023/12/12 06:26:34;;;;;;;6.95;3.00;;;;;;;3.50;100.00;100425.91;6246378;28;20045;-67
2023/12/12 06:29:35;;;;;;;5.75;2.58;;;;;;;3.60;100.00;100423.03;6242655;28;20354;-67
2023/12/12 06:32:37;;;;;;;6.25;2.65;;;;;;;3.64;100.00;100424.66;6243236;28;20050;-67
2023/12/12 06:35:38;;;;;;;5.07;2.25;;;;;;;3.71;100.00;100426.16;6245632;28;20054;-67
2023/12/12 06:38:40;;;;;;;3.83;2.35;;;;;;;3.71;100.00;100421.78;6243440;28;20038;-67
2023/12/12 06:41:43;;;;;;;4.85;1.95;;;;;;;3.78;100.00;100422.47;6238759;28;20053;-67
2023/12/12 06:44:44;;;;;;;8.38;3.47;;;;;;;3.77;100.00;100421.63;6242915;28;20045;-67
2023/12/12 06:47:46;;;;;;;6.15;2.83;;;;;;;3.79;100.00;100418.97;6243408;28;20350;-67
2023/12/12 06:50:47;;;;;;;6.65;2.67;;;;;;;3.79;100.00;100417.22;6241261;28;20072;-68
2023/12/12 06:53:49;;;;;;;4.03;2.30;;;;;;;3.80;100.00;100411.13;6239018;28;20049;-68
2023/12/12 06:56:52;;;;;;;5.72;2.60;;;;;;;3.76;100.00;100414.72;6238339;28;20123;-67
2023/12/12 06:59:54;;;;;;;5.65;2.30;;;;;;;3.81;100.00;100410.25;6238686;28;20430;-67
2023/12/12 07:02:55;;;;;;;5.95;2.80;;;;;;;3.79;100.00;100409.44;6244549;28;20130;-67
2023/12/12 07:05:57;;;;;;;6.57;3.10;;;;;;;3.79;100.00;100413.78;6244407;28;20053;-67
2023/12/12 07:08:58;;;;;;;6.47;2.80;;;;;;;3.75;100.00;100419.97;6244518;28;20037;-67
2023/12/12 07:12:01;;;;;;;6.72;2.67;;;;;;;3.72;100.00;100420.03;6243442;28;20505;-67
2023/12/12 07:15:02;;;;;;;6.25;3.38;;;;;;;3.73;100.00;100420.03;6241568;28;20042;-69
2023/12/12 07:18:07;;;;;;;7.55;2.97;;;;;;;3.64;100.00;100424.66;6239559;28;20053;-67
2023/12/12 07:21:09;;;;;;;7.65;3.30;;;;;;;3.66;100.00;100431.47;6240331;28;20052;-68
2023/12/12 07:24:14;;;;;;;9.27;2.97;;;;;;;3.72;100.00;100423.50;6240482;28;20357;-68
2023/12/12 07:27:17;;;;;;;4.47;2.53;;;;;;;3.75;100.00;100430.34;6242304;28;20076;-67
2023/12/12 07:30:18;;;;;;;9.05;3.08;;;;;;;3.80;100.00;100434.50;6242052;28;20124;-68
2023/12/12 07:33:19;;;;;;;7.32;2.95;;;;;;;3.86;100.00;100440.41;6239539;28;20335;-67
2023/12/12 07:36:21;;;;;;;7.78;3.22;;;;;;;3.91;100.00;100442.00;6236150;28;20049;-67
2023/12/12 07:39:23;;;;;;;3.72;2.10;;;;;;;3.97;100.00;100443.56;6241092;28;20362;-68
2023/12/12 07:42:26;;;;;;;7.15;2.92;;;;;;;4.02;100.00;100441.66;6241756;28;20081;-67
2023/12/12 07:45:27;;;;;;;6.88;3.13;;;;;;;4.05;100.00;100437.22;6240565;28;20336;-67
2023/12/12 07:48:29;;;;;;;7.10;3.38;;;;;;;4.07;100.00;100434.56;6245711;28;20041;-67
2023/12/12 07:51:30;;;;;;;4.57;3.00;;;;;;;4.10;100.00;100442.28;6246940;28;20434;-68
2023/12/12 07:54:31;;;;;;;6.68;2.70;;;;;;;4.16;100.00;100438.63;6248624;28;20049;-68
2023/12/12 07:57:34;;;;;;;6.50;2.88;;;;;;;4.22;100.00;100451.41;6253362;22;20046;-67
2023/12/12 08:00:35;;;;;;;10.05;3.75;;;;;;;4.24;100.00;100439.22;6224453;28;20045;-67
2023/12/12 08:03:37;;;;;;;12.30;3.55;;;;;;;4.31;100.00;100440.72;6221873;28;20050;-70
2023/12/12 08:06:38;;;;;;;7.47;2.92;;;;;;;4.36;100.00;100441.44;6219806;28;20049;-70
2023/12/12 08:09:40;;;;;;;7.68;3.55;;;;;;;4.38;100.00;100434.44;6198912;28;20065;-68
2023/12/12 08:12:43;;;;;;;6.28;2.92;;;;;;;4.47;100.00;100434.13;6214701;28;20108;-69
2023/12/12 08:15:44;;;;;;;8.38;2.67;;;;;;;4.48;100.00;100432.38;6197791;28;20051;-71
2023/12/12 08:18:46;;;;;;;9.10;3.53;;;;;;;4.50;100.00;100430.59;6206388;28;20137;-70
2023/12/12 08:21:47;;;;;;;9.00;3.25;;;;;;;4.52;100.00;100429.59;6214617;28;20355;-69
2023/12/12 08:24:50;;;;;;;7.13;2.92;;;;;;;4.60;100.00;100442.38;6201212;28;20136;-68
2023/12/12 08:27:53;;;;;;;7.97;3.10;;;;;;;4.68;100.00;100436.88;6208753;28;20069;-70
2023/12/12 08:30:54;;;;;;;8.20;3.40;;;;;;;4.71;100.00;100436.78;6221921;28;20041;-67
2023/12/12 08:33:56;;;;;;;8.98;3.38;;;;;;;4.74;100.00;100431.50;6214031;28;20059;-67
2023/12/12 08:36:57;;;;;;;6.78;2.88;;;;;;;4.80;100.00;100428.66;6213348;28;20045;-69
2023/12/12 08:39:58;;;;;;;8.20;3.28;;;;;;;4.90;100.00;100434.41;6217740;28;20053;-68
2023/12/12 08:43:01;;;;;;;9.40;3.83;;;;;;;4.96;100.00;100424.63;6207999;28;20042;-69
2023/12/12 08:46:02;;;;;;;11.90;4.43;;;;;;;4.96;100.00;100414.22;6215828;28;20050;-68
2023/12/12 08:49:04;;;;;;;15.38;5.25;;;;;;;5.03;100.00;100423.50;6213312;28;20049;-70
2023/12/12 08:52:06;;;;;;;24.95;6.50;;;;;;;5.06;100.00;100428.59;6213052;28;20170;-69
2023/12/12 08:55:10;;;;;;;15.07;5.75;;;;;;;5.15;100.00;100432.63;6215347;28;20177;-68
2023/12/12 08:58:13;;;;;;;20.55;5.88;;;;;;;5.21;100.00;100418.53;6226973;28;20156;-69
2023/12/12 09:01:15;;;;;;;14.20;4.85;;;;;;;5.27;100.00;100419.19;6215929;28;20043;-69
2023/12/12 09:04:16;;;;;;;10.73;4.63;;;;;;;5.37;100.00;100416.22;6217390;28;20049;-69
2023/12/12 09:07:17;;;;;;;10.43;5.00;;;;;;;5.46;100.00;100418.50;6216967;28;20057;-69
2023/12/12 09:10:19;;;;;;;13.75;4.97;;;;;;;5.51;100.00;100416.56;6217804;28;20041;-70
2023/12/12 09:13:22;;;;;;;11.63;5.00;;;;;;;5.52;100.00;100415.66;6216604;28;20347;-69
2023/12/12 09:16:23;;;;;;;12.98;5.35;;;;;;;5.50;100.00;100418.31;6227622;28;20103;-70
2023/12/12 09:19:24;;;;;;;9.93;5.00;;;;;;;5.54;100.00;100426.84;6213152;28;20447;-70
2023/12/12 09:22:26;;;;;;;13.95;4.78;;;;;;;5.63;100.00;100438.69;6204444;28;20054;-70
2023/12/12 09:25:27;;;;;;;14.00;4.88;;;;;;;5.66;100.00;100430.75;6204573;28;20047;-70
2023/12/12 09:28:30;;;;;;;15.10;5.32;;;;;;;5.68;100.00;100421.97;6220096;28;20041;-69
2023/12/12 09:31:32;;;;;;;15.40;5.80;;;;;;;5.71;100.00;100423.59;6228873;28;20062;-69
2023/12/12 09:34:34;;;;;;;11.20;5.53;;;;;;;5.74;100.00;100419.13;6221524;28;20485;-70
2023/12/12 09:37:35;;;;;;;18.15;6.15;;;;;;;5.77;100.00;100412.97;6209465;28;20082;-69
2023/12/12 09:40:37;;;;;;;11.65;5.20;;;;;;;5.73;100.00;100414.84;6212711;28;20057;-70
2023/12/12 09:43:40;;;;;;;16.10;5.60;;;;;;;5.73;100.00;100414.84;6204486;28;20428;-69
2023/12/12 09:46:43;;;;;;;15.55;5.70;;;;;;;5.75;100.00;100406.94;6216031;28;20467;-70
2023/12/12 09:49:45;;;;;;;11.98;5.10;;;;;;;5.83;100.00;100404.88;6221946;28;20069;-70
2023/12/12 09:52:49;;;;;;;12.20;4.85;;;;;;;5.79;100.00;100401.53;6228390;28;20056;-70
2023/12/12 09:55:52;;;;;;;8.65;4.20;;;;;;;5.78;100.00;100393.78;6228010;28;20050;-68
2023/12/12 09:58:55;;;;;;;15.70;5.35;;;;;;;5.80;100.00;100395.41;6228116;28;20053;-68
2023/12/12 10:01:58;;;;;;;9.85;5.22;;;;;;;5.84;100.00;100390.94;6227606;28;20078;-68
2023/12/12 10:05:00;;;;;;;12.15;5.72;;;;;;;5.88;100.00;100389.06;6224639;28;20354;-68
2023/12/12 10:08:03;;;;;;;9.10;5.07;;;;;;;5.91;100.00;100381.97;6219132;28;20128;-67
2023/12/12 10:11:06;;;;;;;16.33;5.40;;;;;;;5.96;100.00;100380.06;6227873;28;20049;-68
2023/12/12 10:14:10;;;;;;;14.35;5.65;;;;;;;6.00;100.00;100383.41;6227599;28;20060;-68
2023/12/12 10:17:12;;;;;;;11.35;5.45;;;;;;;6.02;100.00;100373.75;6227549;28;20081;-69
2023/12/12 10:20:14;;;;;;;13.70;5.32;;;;;;;6.05;100.00;100368.41;6205377;28;20474;-69
2023/12/12 10:23:15;;;;;;;11.57;5.55;;;;;;;6.08;100.00;100363.88;6203203;28;20047;-69
2023/12/12 10:26:24;;;;;;;14.95;5.70;;;;;;;6.09;100.00;100357.78;6203412;28;20057;-70
2023/12/12 10:29:27;;;;;;;14.10;6.35;;;;;;;6.17;100.00;100361.81;6203256;28;20446;-69
2023/12/12 10:32:28;;;;;;;12.40;5.75;;;;;;;6.20;100.00;100362.53;6203144;28;20061;-68
2023/12/12 10:35:31;;;;;;;18.45;7.25;;;;;;;6.31;100.00;100357.75;6201724;28;20050;-69
2023/12/12 10:38:35;;;;;;;16.55;7.35;;;;;;;6.37;100.00;100347.97;6215040;28;20132;-69
2023/12/12 10:41:36;;;;;;;20.45;6.80;;;;;;;6.45;100.00;100346.72;6219485;28;20057;-69
2023/12/12 10:44:41;;;;;;;21.65;7.82;;;;;;;6.48;100.00;100349.19;6218619;28;20046;-69
2023/12/12 10:47:45;;;;;;;15.43;7.22;;;;;;;6.47;100.00;100342.28;6212235;28;20050;-70
2023/12/12 10:50:52;;;;;;;23.38;9.63;;;;;;;6.53;100.00;100334.16;6202873;28;20046;-70
2023/12/12 10:53:56;;;;;;;15.43;7.43;;;;;;;6.55;100.00;100326.28;6202112;28;20050;-70
2023/12/12 10:56:58;;;;;;;21.33;8.05;;;;;;;6.65;100.00;100324.13;6202582;28;20057;-70
2023/12/12 11:00:11;;;;;;;24.23;8.85;;;;;;;6.70;100.00;100319.53;6201153;28;20046;-70
2023/12/12 11:03:12;;;;;;;19.55;7.55;;;;;;;6.85;100.00;100309.25;6199666;28;20057;-70
2023/12/12 11:06:13;;;;;;;20.08;7.63;;;;;;;7.04;100.00;100308.41;6212194;28;20061;-69
2023/12/12 11:09:15;;;;;;;17.17;7.45;;;;;;;7.16;100.00;100296.56;6217611;28;20057;-69
2023/12/12 11:12:17;;;;;;;22.45;9.20;;;;;;;7.19;100.00;100293.81;6211548;28;20046;-69
2023/12/12 11:15:21;;;;;;;21.50;8.23;;;;;;;7.19;100.00;100278.97;6203458;28;20046;-69
2023/12/12 11:18:23;;;;;;;19.35;8.70;;;;;;;7.20;100.00;100274.59;6202091;28;20505;-68
2023/12/12 11:21:44;;;;;;;20.58;8.25;;;;;;;7.20;100.00;100266.75;6201971;28;20050;-68
2023/12/12 11:25:03;;;;;;;22.85;9.27;;;;;;;7.22;100.00;100264.91;6202200;28;20158;-70
2023/12/12 11:28:05;;;;;;;;;;;;;;;7.27;100.00;100268.16;6202550;28;20133;-70
2023/12/12 11:31:08;;;;;;;25.75;10.15;;;;;;;7.25;100.00;100257.78;6201744;28;19921;-71
2023/12/12 11:34:11;;;;;;;19.52;8.95;;;;;;;7.28;100.00;100256.78;6209461;28;20053;-69
2023/12/12 11:37:12;;;;;;;29.40;10.52;;;;;;;7.20;100.00;100254.53;6214234;28;20434;-68
2023/12/12 11:40:13;;;;;;;24.73;9.55;;;;;;;7.23;100.00;100254.41;6225433;28;20046;-69
2023/12/12 11:43:20;;;;;;;25.95;10.45;;;;;;;7.28;100.00;100243.72;6225941;28;20057;-69
2023/12/12 11:46:26;;;;;;;33.33;11.82;;;;;;;7.30;100.00;100244.47;6225932;28;20054;-69
2023/12/12 11:49:28;;;;;;;28.60;10.13;;;;;;;7.33;100.00;100234.72;6225948;28;20053;-69
2023/12/12 11:52:48;;;;;;;23.08;10.45;;;;;;;7.42;100.00;100235.22;6225782;28;20046;-71
2023/12/12 11:55:50;;;;;;;24.38;10.73;;;;;;;7.47;100.00;100234.06;6225867;28;20050;-68
2023/12/12 11:58:53;;;;;;;27.90;10.27;;;;;;;7.55;100.00;100224.09;6225627;28;20046;-71
2023/12/12 12:01:56;;;;;;;26.25;10.93;;;;;;;7.59;100.00;100217.78;6225664;28;20065;-69
2023/12/12 12:04:59;;;;;;;23.45;9.35;;;;;;;7.69;100.00;100214.72;6228061;28;20053;-69
2023/12/12 12:08:01;;;;;;;24.00;9.80;;;;;;;7.78;100.00;100209.03;6230223;28;20050;-68
2023/12/12 12:11:03;;;;;;;31.35;10.15;;;;;;;7.83;100.00;100210.47;6230439;28;20050;-68
2023/12/12 12:14:04;;;;;;;24.27;9.65;;;;;;;7.87;100.00;100209.41;6205045;28;20041;-68
2023/12/12 12:17:08;;;;;;;25.67;9.82;;;;;;;8.00;100.00;100199.16;6212512;28;20054;-68
2023/12/12 12:20:10;;;;;;;25.70;10.10;;;;;;;8.05;100.00;100198.91;6212853;28;20082;-68
2023/12/12 12:23:11;;;;;;;29.35;9.55;;;;;;;8.09;100.00;100190.81;6214402;28;20350;-69
2023/12/12 12:26:12;;;;;;;22.30;9.43;;;;;;;8.18;100.00;100192.13;6227610;28;20094;-68
2023/12/12 12:29:14;;;;;;;23.65;8.65;;;;;;;8.05;100.00;100191.91;6230309;28;20046;-69
2023/12/12 12:32:18;;;;;;;40.83;11.45;;;;;;;7.89;100.00;100191.84;6212814;28;20057;-67
2023/12/12 12:35:19;;;;;;;22.30;8.85;;;;;;;7.94;100.00;100185.53;6205940;28;20435;-68
2023/12/12 12:38:24;;;;;;;23.70;9.45;;;;;;;7.89;100.00;100180.53;6205602;28;20057;-69
2023/12/12 12:41:25;;;;;;;26.98;9.52;;;;;;;7.88;100.00;100178.84;6205662;28;20058;-70
2023/12/12 12:44:33;;;;;;;19.67;8.18;;;;;;;7.86;100.00;100173.69;6205429;28;20051;-70
2023/12/12 12:47:35;;;;;;;20.95;7.82;;;;;;;7.83;100.00;100167.78;6205779;28;20069;-70
2023/12/12 12:50:39;;;;;;;23.65;8.82;;;;;;;7.79;100.00;100167.06;6205415;28;20046;-69
2023/12/12 12:53:40;;;;;;;17.55;8.05;;;;;;;7.74;100.00;100160.41;6199835;28;20046;-68
2023/12/12 12:56:44;;;;;;;21.58;8.98;;;;;;;7.71;100.00;100156.16;6216507;28;20062;-67
2023/12/12 12:59:45;;;;;;;24.15;9.13;;;;;;;7.65;100.00;100160.88;6194053;28;20061;-69
2023/12/12 13:02:48;;;;;;;17.88;8.73;;;;;;;7.62;100.00;100167.09;6199905;28;20038;-69
2023/12/12 13:05:49;;;;;;;23.38;8.85;;;;;;;7.61;100.00;100171.47;6200489;28;20057;-69
2023/12/12 13:08:50;;;;;;;22.30;8.55;;;;;;;7.64;100.00;100157.41;6206443;28;20061;-69
2023/12/12 13:11:52;;;;;;;20.73;8.23;;;;;;;7.66;100.00;100157.31;6202370;28;20057;-70
2023/12/12 13:14:53;;;;;;;27.80;8.95;;;;;;;7.69;100.00;100155.41;6203806;28;20054;-68
2023/12/12 13:17:56;;;;;;;17.08;8.70;;;;;;;7.73;100.00;100153.47;6214194;28;20054;-68
2023/12/12 13:20:57;;;;;;;24.85;9.23;;;;;;;7.75;100.00;100156.84;6213110;28;20050;-67
2023/12/12 13:23:59;;;;;;;21.15;8.18;;;;;;;7.75;100.00;100155.09;6205646;28;20051;-67
2023/12/12 13:27:00;;;;;;;22.58;9.32;;;;;;;7.75;100.00;100152.47;6210279;28;20050;-70
2023/12/12 13:30:05;;;;;;;29.08;8.98;;;;;;;7.72;100.00;100146.53;6224375;28;20056;-67
2023/12/12 13:33:09;;;;;;;23.80;8.30;;;;;;;7.73;100.00;100145.63;6224571;28;20056;-68
2023/12/12 13:36:11;;;;;;;28.15;8.88;;;;;;;7.75;100.00;100141.16;6213142;28;20057;-68
2023/12/12 13:39:13;;;;;;;22.75;8.95;;;;;;;7.73;100.00;100138.63;6225633;28;20045;-68
2023/12/12 13:42:14;;;;;;;31.70;8.55;;;;;;;7.70;100.00;100135.31;6228535;28;20057;-67
2023/12/12 13:45:16;;;;;;;28.00;9.32;;;;;;;7.71;100.00;100132.63;6218869;28;20045;-70
2023/12/12 13:48:20;;;;;;;25.45;10.13;;;;;;;7.76;100.00;100132.38;6217827;28;20569;-70
2023/12/12 13:51:21;;;;;;;21.35;7.63;;;;;;;7.80;100.00;100126.06;6213818;28;20038;-68
2023/12/12 13:54:23;;;;;;;23.08;8.45;;;;;;;7.84;100.00;100112.75;6224861;28;20069;-70
2023/12/12 13:57:24;;;;;;;21.80;8.05;;;;;;;7.82;100.00;100113.78;6218189;28;20052;-68
2023/12/12 14:00:27;;;;;;;19.40;8.32;;;;;;;7.77;100.00;100107.94;6267545;22;20438;-68
2023/12/12 14:03:29;;;;;;;16.30;7.32;;;;;;;7.76;100.00;100104.44;6247282;28;20045;-73